Latest Weather Observations for Moorabbin Airport

IDV60801

Issued at 3:32 pm EDT Tuesday 29 November 2022 (issued every 10 minutes, with the page automatically refreshed every 10 minutes)

About weather observations | Map of weather stations | Latest weather observations for VIC | Other Formats
Station Details ID: 086077 Name: MOORABBIN AIRPORT Lat: -37.98 Lon: 145.10 Height: 12.1 m
Data from the previous 72 hours. | See also: Recent months at Moorabbin Airport
Date/Time
EDT
Temp
°C
App
Temp
°C
Dew
Point
°C
Rel
Hum
%
Delta-T
°C
Wind Press
QNH
hPa
Press
MSL
hPa
Rain since
9am
mm
Dir  Spd
km/h
Gust
km/h
Spd
kts
Gust
kts
29/03:30pm 17.4 13.1 8.0 54 4.8 SSW 20 30 11 16 1017.0 1017.0 0.0
29/03:00pm 17.5 13.1 7.5 52 5.0 SSW 20 28 11 15 1017.0 1017.0 0.0
29/02:30pm 17.3 13.1 7.4 52 5.0 SSW 19 30 10 16 1017.1 1017.1 0.0
29/02:00pm 16.9 12.5 7.5 54 4.7 SSW 20 32 11 17 1017.2 1017.2 0.0
29/01:30pm 17.2 13.0 8.4 56 4.5 SW 20 30 11 16 1017.2 1017.2 0.0
29/01:00pm 16.5 11.9 8.2 58 4.2 SSW 22 30 12 16 1017.3 1017.3 0.0
29/12:30pm 16.2 12.0 8.2 59 4.1 SSW 20 30 11 16 1017.3 1017.3 0.0
29/12:00pm 16.5 12.6 9.4 63 3.7 SSW 20 30 11 16 1017.0 1017.0 0.0
29/11:30am 16.2 11.7 8.4 60 4.0 SW 22 32 12 17 1016.9 1016.9 0.0
29/11:00am 15.9 12.2 9.3 65 3.4 WSW 19 28 10 15 1016.7 1016.7 0.0
29/10:30am 15.9 12.2 9.3 65 3.4 WSW 19 28 10 15 1016.3 1016.3 0.0
29/10:00am 15.5 11.5 9.2 66 3.2 WSW 20 28 11 15 1016.2 1016.2 0.0
29/09:30am 15.2 11.3 9.6 69 2.9 WSW 20 30 11 16 1015.9 1015.9 0.0
29/09:00am 14.9 11.1 9.9 72 2.6 W 20 30 11 16 1015.5 1015.5 0.0
29/08:30am 14.9 11.9 10.5 75 2.3 W 17 28 9 15 1015.0 1015.0 0.0
29/08:00am 14.3 10.8 10.3 77 2.1 W 19 28 10 15 1014.5 1014.5 0.0
29/07:30am 13.6 10.9 10.4 81 1.7 W 15 20 8 11 1014.0 1014.0 0.0
29/07:00am 12.8 9.6 10.0 83 1.4 W 17 24 9 13 1013.7 1013.7 0.0
29/06:30am 13.0 10.0 10.5 85 1.3 W 17 24 9 13 1013.2 1013.2 0.0
29/06:00am 12.7 9.9 10.1 84 1.3 W 15 22 8 12 1012.7 1012.7 0.0
29/05:57am 12.7 9.6 10.2 85 1.3 W 17 22 9 12 1012.7 1012.7 0.0
29/05:46am 12.7 9.6 10.4 86 1.2 W 17 26 9 14 1012.5 1012.5 0.0
29/05:30am 12.8 10.1 10.3 85 1.3 W 15 24 8 13 1012.3 1012.3 0.0
29/05:00am 12.9 9.5 10.4 85 1.3 W 19 26 10 14 1011.8 1011.8 0.0
29/04:30am 12.9 10.3 10.6 86 1.2 W 15 24 8 13 1011.5 1011.5 0.0
29/04:00am 12.6 9.6 10.7 88 1.0 WNW 17 24 9 13 1011.3 1011.3 0.0
29/03:30am 12.6 9.1 10.3 86 1.2 W 19 28 10 15 1011.2 1011.2 0.0
29/03:00am 13.1 9.6 10.8 86 1.2 W 20 32 11 17 1011.3 1011.3 0.0
29/02:30am 13.7 9.3 10.3 80 1.8 W 24 35 13 19 1011.3 1011.3 0.0
29/02:00am 13.6 9.5 10.2 80 1.8 W 22 33 12 18 1011.1 1011.1 0.0
29/01:30am 13.8 8.9 10.0 78 2.0 W 26 37 14 20 1011.0 1011.0 0.0
29/01:00am 13.9 9.0 10.1 78 2.0 WNW 26 39 14 21 1010.8 1010.8 0.0
29/12:30am 14.2 9.7 10.2 77 2.1 W 24 35 13 19 1010.8 1010.8 0.0
29/12:00am 14.0 9.9 10.2 78 2.0 W 22 37 12 20 1010.6 1010.6 0.0
 
Date/Time
EDT
Temp
°C
App
Temp
°C
Dew
Point
°C
Rel
Hum
%
Delta-T
°C
Wind Press
QNH
hPa
Press
MSL
hPa
Rain since
9am
mm
Dir  Spd
km/h
Gust
km/h
Spd
kts
Gust
kts
28/11:30pm 14.1 10.1 10.3 78 2.0 WNW 22 35 12 19 1010.6 1010.6 0.0
28/11:00pm 14.2 10.6 10.4 78 2.0 WNW 20 35 11 19 1010.4 1010.4 0.0
28/10:30pm 14.3 9.6 10.5 78 2.0 W 26 44 14 24 1010.3 1010.3 0.0
28/10:19pm 14.2 9.0 10.2 77 2.1 W 28 46 15 25 1010.1 1010.1 0.0
28/10:00pm 15.5 10.9 9.6 68 3.1 W 24 39 13 21 1009.9 1009.9 0.0
28/09:30pm 15.6 12.3 11.0 74 2.5 WNW 19 28 10 15 1009.3 1009.3 0.0
28/09:00pm 16.0 12.9 10.3 69 3.0 W 17 26 9 14 1008.9 1008.9 0.0
28/08:30pm 15.8 12.3 10.8 72 2.7 WSW 20 28 11 15 1008.8 1008.8 0.0
28/08:00pm 15.6 12.2 11.2 75 2.4 WSW 20 30 11 16 1008.5 1008.5 0.0
28/07:30pm 16.8 12.5 9.2 61 3.9 W 22 32 12 17 1008.0 1008.0 0.0
28/07:00pm 16.4 12.2 9.6 64 3.6 W 22 35 12 19 1007.9 1007.9 0.0
28/06:30pm 17.0 14.2 8.4 57 4.4 WNW 13 20 7 11 1007.4 1007.4 0.0
28/06:00pm 17.2 14.5 9.1 59 4.2 W 13 20 7 11 1007.3 1007.3 0.0
28/05:30pm 17.2 13.1 8.6 57 4.4 WNW 20 28 11 15 1007.4 1007.4 0.0
28/05:00pm 17.1 12.4 7.7 54 4.8 WNW 22 33 12 18 1007.4 1007.4 0.0
28/04:30pm 17.9 14.3 8.2 53 5.0 W 17 26 9 14 1007.4 1007.4 0.0
28/04:00pm 17.4 13.1 7.2 51 5.1 W 19 26 10 14 1007.5 1007.5 0.0
28/03:30pm 18.1 13.7 7.5 50 5.4 WNW 20 39 11 21 1007.7 1007.7 0.0
28/03:00pm 17.5 13.1 7.3 51 5.1 WNW 20 30 11 16 1007.8 1007.8 0.0
28/02:30pm 18.3 14.3 8.3 52 5.1 WNW 19 30 10 16 1008.1 1008.1 0.0
28/02:00pm 17.2 13.4 7.5 53 4.9 WNW 17 26 9 14 1008.3 1008.3 0.0
28/01:30pm 15.9 10.7 7.4 57 4.2 W 24 33 13 18 1008.7 1008.7 0.0
28/01:00pm 16.5 12.1 7.2 54 4.6 W 20 30 11 16 1008.7 1008.7 0.0
28/12:30pm 16.5 12.6 7.2 54 4.6 W 17 26 9 14 1008.8 1008.8 0.0
28/12:00pm 16.7 12.4 6.8 52 4.9 WNW 19 26 10 14 1008.8 1008.8 0.0
28/11:30am 15.4 11.0 6.4 55 4.4 WNW 19 28 10 15 1009.0 1009.0 0.0
28/11:00am 15.9 11.6 6.9 55 4.4 WNW 19 28 10 15 1009.2 1009.2 0.0
28/10:30am 15.3 11.3 6.6 56 4.2 WNW 17 28 9 15 1009.1 1009.1 0.0
28/10:00am 14.5 10.2 7.8 64 3.3 WNW 20 28 11 15 1009.3 1009.3 0.0
28/09:30am 13.8 9.4 7.6 66 3.0 WNW 20 30 11 16 1009.2 1009.2 0.0
28/09:00am 13.5 9.7 7.5 67 2.9 WNW 17 26 9 14 1009.0 1009.0 0.2
28/08:30am 13.2 9.4 7.4 68 2.8 WNW 17 24 9 13 1008.9 1008.9 0.2
28/08:00am 12.5 8.6 7.2 70 2.6 WNW 17 24 9 13 1008.8 1008.8 0.2
28/07:30am 11.6 7.8 7.7 77 1.9 WNW 17 24 9 13 1008.6 1008.6 0.2
28/07:00am 11.5 8.4 7.4 76 2.0 WNW 13 20 7 11 1008.2 1008.2 0.2
28/06:30am 10.3 7.6 7.4 82 1.4 NW 11 15 6 8 1008.2 1008.2 0.2
28/06:00am 10.0 7.7 7.3 83 1.3 NW 9 13 5 7 1008.0 1008.0 0.2
28/05:30am 10.3 7.6 7.4 82 1.4 NW 11 15 6 8 1007.7 1007.7 0.2
28/05:00am 10.7 8.0 7.4 80 1.6 NW 11 15 6 8 1007.6 1007.6 0.2
28/04:30am 10.7 8.4 7.4 80 1.6 WNW 9 13 5 7 1007.4 1007.4 0.2
28/04:00am 11.2 8.2 7.7 79 1.7 WNW 13 15 7 8 1007.3 1007.3 0.2
28/03:30am 12.0 8.8 6.7 70 2.5 WSW 13 19 7 10 1007.2 1007.2 0.2
28/03:00am 11.8 9.2 5.9 67 2.8 WSW 9 13 5 7 1007.0 1007.0 0.2
28/02:30am 11.9 9.2 5.5 65 3.0 W 9 15 5 8 1007.1 1007.1 0.2
28/02:00am 12.3 9.2 5.7 64 3.1 W 11 19 6 10 1007.4 1007.4 0.2
28/01:30am 12.4 9.5 6.5 67 2.8 WSW 11 17 6 9 1007.5 1007.5 0.2
28/01:00am 12.5 9.5 6.1 65 3.0 WSW 11 17 6 9 1007.6 1007.6 0.2
28/12:30am 12.5 9.8 5.7 63 3.2 W 9 15 5 8 1007.7 1007.7 0.2
28/12:00am 12.8 10.4 7.0 68 2.8 WNW 9 17 5 9 1007.9 1007.9 0.2
 
Date/Time
EDT
Temp
°C
App
Temp
°C
Dew
Point
°C
Rel
Hum
%
Delta-T
°C
Wind Press
QNH
hPa
Press
MSL
hPa
Rain since
9am
mm
Dir  Spd
km/h
Gust
km/h
Spd
kts
Gust
kts
27/11:30pm 12.9 10.5 6.9 67 2.9 W 9 13 5 7 1008.0 1008.0 0.2
27/11:00pm 13.5 10.5 7.5 67 2.9 SW 13 19 7 10 1008.0 1008.0 0.2
27/10:30pm 13.3 10.3 7.7 69 2.8 SW 13 19 7 10 1008.0 1008.0 0.2
27/10:00pm 13.1 9.8 8.0 71 2.5 SSW 15 20 8 11 1008.0 1008.0 0.2
27/09:30pm 13.0 9.3 8.1 72 2.4 SSW 17 24 9 13 1007.8 1007.8 0.2
27/09:00pm 13.3 9.1 8.4 72 2.4 SSW 20 28 11 15 1007.6 1007.6 0.2
27/08:30pm 13.9 10.7 8.5 70 2.7 SSW 15 24 8 13 1007.2 1007.2 0.2
27/08:00pm 13.4 10.8 9.5 77 2.0 SSW 13 19 7 10 1007.0 1007.0 0.2
27/07:30pm 13.2 10.0 10.0 81 1.6 SSW 17 28 9 15 1006.7 1006.7 0.2
27/07:00pm 13.4 9.5 9.5 77 2.0 SSW 20 28 11 15 1006.3 1006.3 0.2
27/06:30pm 13.7 8.8 9.9 78 2.0 SSW 26 35 14 19 1006.0 1006.0 0.2
27/06:27pm 13.8 8.5 10.0 78 2.0 SSW 28 37 15 20 1006.0 1006.0 0.2
27/06:16pm 13.8 9.0 10.4 80 1.8 SSW 26 37 14 20 1005.9 1005.9 0.2
27/06:00pm 14.3 9.7 10.9 80 1.8 SSW 26 37 14 20 1005.5 1005.5 0.2
27/05:30pm 13.9 8.8 10.7 81 1.7 SSW 28 39 15 21 1005.3 1005.3 0.2
27/05:00pm 15.9 10.6 9.8 67 3.2 SSW 28 43 15 23 1004.6 1004.6 0.2
27/04:30pm 17.4 13.5 10.8 65 3.5 SW 22 32 12 17 1004.0 1004.0 0.2
27/04:00pm 18.9 16.3 10.7 59 4.4 WSW 15 24 8 13 1003.7 1003.7 0.2
27/03:30pm 18.2 15.9 10.3 60 4.2 SW 13 22 7 12 1003.7 1003.7 0.2
27/03:00pm 17.4 14.6 11.2 67 3.4 SW 17 24 9 13 1003.9 1003.9 0.2
27/02:30pm 17.9 14.7 11.2 65 3.6 SSW 19 28 10 15 1004.2 1004.2 0.2
27/02:00pm 18.1 13.3 10.2 60 4.2 WSW 26 35 14 19 1004.3 1004.3 0.2
27/01:30pm 18.7 15.5 9.8 56 4.7 WSW 17 35 9 19 1004.3 1004.3 0.2
27/01:00pm 17.4 14.1 11.0 66 3.5 WSW 19 30 10 16 1004.6 1004.6 0.0
27/12:30pm 17.3 12.7 10.9 66 3.4 WSW 26 39 14 21 1004.6 1004.6 0.0
27/12:00pm 17.3 13.0 9.5 60 4.1 WSW 22 35 12 19 1004.4 1004.4 0.0
27/11:30am 17.3 13.9 9.0 58 4.3 W 17 32 9 17 1004.2 1004.2 0.0
27/11:00am 17.1 13.2 9.3 60 4.1 W 20 28 11 15 1004.3 1004.3 0.0
27/10:30am 17.0 13.2 9.9 63 3.7 W 20 28 11 15 1004.3 1004.3 0.0
27/10:00am 16.9 14.0 11.0 68 3.2 W 17 24 9 13 1004.3 1004.3 0.0
27/09:30am 16.5 13.9 10.6 68 3.1 WSW 15 20 8 11 1004.4 1004.4 0.0
27/09:00am 15.8 12.4 10.6 71 2.8 W 19 30 10 16 1004.3 1004.3 0.6
27/08:30am 15.5 12.5 10.5 72 2.6 WSW 17 22 9 12 1004.2 1004.2 0.6
27/08:00am 15.4 12.1 11.0 75 2.4 W 19 26 10 14 1004.0 1004.0 0.6
27/07:30am 15.3 12.7 12.1 81 1.7 W 17 24 9 13 1003.7 1003.7 0.6
27/07:00am 15.3 14.2 11.9 80 1.8 W 9 15 5 8 1003.4 1003.4 0.6
27/06:30am 15.1 14.0 11.9 81 1.7 NW 9 13 5 7 1003.3 1003.3 0.6
27/06:00am 14.8 13.3 11.8 82 1.6 WNW 11 15 6 8 1003.2 1003.2 0.6
27/05:30am 15.0 13.8 11.6 80 1.8 W 9 15 5 8 1003.1 1003.1 0.6
27/05:00am 15.6 14.6 12.4 81 1.8 W 9 11 5 6 1003.2 1003.2 0.6
27/04:30am 15.0 15.7 12.3 84 1.5 CALM 0 0 0 0 1003.2 1003.2 0.6
27/04:00am 15.2 14.7 12.2 82 1.6 W 6 7 3 4 1003.4 1003.4 0.6
27/03:30am 15.2 13.7 12.0 81 1.7 WSW 11 15 6 8 1003.5 1003.5 0.6
27/03:00am 15.5 13.6 11.7 78 2.1 WSW 13 19 7 10 1003.4 1003.4 0.6
27/02:30am 16.1 13.4 12.8 81 1.8 WSW 19 28 10 15 1003.6 1003.6 0.6
27/02:00am 16.5 13.6 12.8 79 2.1 W 20 33 11 18 1003.5 1003.5 0.6
27/01:30am 16.9 14.2 13.0 78 2.2 WSW 19 30 10 16 1003.4 1003.4 0.6
27/01:00am 18.1 15.2 13.0 72 2.9 W 20 28 11 15 1003.4 1003.4 0.6
27/12:30am 19.3 17.5 13.3 68 3.4 WNW 15 20 8 11 1003.2 1003.2 0.6
27/12:00am 19.4 17.8 13.8 70 3.2 WNW 15 24 8 13 1003.4 1003.4 0.6
 
Date/Time
EDT
Temp
°C
App
Temp
°C
Dew
Point
°C
Rel
Hum
%
Delta-T
°C
Wind Press
QNH
hPa
Press
MSL
hPa
Rain since
9am
mm
Dir  Spd
km/h
Gust
km/h
Spd
kts
Gust
kts
26/11:30pm 19.4 18.4 14.6 74 2.8 NW 13 19 7 10 1003.5 1003.5 0.6
26/11:00pm 19.1 18.3 15.0 77 2.4 NW 13 17 7 9 1003.5 1003.5 0.6
26/10:30pm 19.0 18.2 15.1 78 2.3 NNW 13 17 7 9 1003.2 1003.2 0.6
26/10:00pm 18.9 16.4 15.2 79 2.2 N 22 30 12 16 1002.7 1002.7 0.6
26/09:30pm 19.0 16.9 15.1 78 2.3 N 20 30 11 16 1002.8 1002.8 0.6
26/09:00pm 19.4 17.8 15.1 76 2.5 N 17 22 9 12 1003.4 1003.4 0.4
26/08:30pm 19.3 16.8 15.2 77 2.4 NNW 22 30 12 16 1003.7 1003.7 0.4
26/08:00pm 20.0 15.5 13.9 68 3.5 NW 30 43 16 23 1003.8 1003.8 0.0
26/07:30pm 21.5 15.8 12.9 58 4.9 WNW 35 56 19 30 1003.7 1003.7 0.0
26/07:14pm 24.4 19.5 9.9 40 8.0 NNW 26 52 14 28 1003.5 1003.5 0.0
26/07:00pm 25.2 20.1 9.1 36 8.8 N 26 35 14 19 1001.6 1001.6 0.0
26/06:30pm 25.7 19.8 9.1 35 9.0 N 30 41 16 22 1001.6 1001.6 0.0
26/06:00pm 25.7 18.8 8.7 34 9.2 N 35 52 19 28 1001.3 1001.3 0.0
26/05:47pm 25.8 19.0 9.2 35 9.1 N 35 54 19 29 1001.5 1001.5 0.0
26/05:30pm 26.2 18.9 8.7 33 9.5 N 37 52 20 28 1001.7 1001.7 0.0
26/05:00pm 26.6 18.4 8.1 31 10.0 N 41 59 22 32 1002.0 1002.0 0.0
26/04:30pm 26.8 18.3 8.7 32 9.9 N 43 59 23 32 1002.3 1002.3 0.0
26/04:25pm 26.9 18.7 8.4 31 10.0 N 41 59 22 32 1002.3 1002.3 0.0
26/04:00pm 27.1 19.9 9.0 32 10.0 N 37 50 20 27 1002.8 1002.8 0.0

Other formats

Comma delimited format used in spreadsheet applications
http://www.bom.gov.au/fwo/IDV60801/IDV60801.94870.axf

JavaScript Object Notation format (JSON) in row-major order
http://www.bom.gov.au/fwo/IDV60801/IDV60801.94870.json

Data quality

Most of these data are generated automatically and are frequently updated. Quality checks on data are not normally performed. It is possible for incorrect values to appear. Refer to information at About Latest Weather Observations and please check the disclaimer before using these data.